createdAt,value
2019-05-18T00:01:07.509Z,7.08
2019-05-18T00:03:36.948Z,7.47
2019-05-18T00:06:07.933Z,9.48
2019-05-18T00:08:38.340Z,7.25
2019-05-18T00:11:07.708Z,7.50
2019-05-18T00:13:39.881Z,6.42
2019-05-18T00:16:11.049Z,7.47
2019-05-18T00:18:40.304Z,5.95
2019-05-18T00:21:10.911Z,9.33
2019-05-18T00:23:42.440Z,6.95
2019-05-18T00:26:11.829Z,7.50
2019-05-18T00:28:42.395Z,7.15
2019-05-18T00:31:11.752Z,8.60
2019-05-18T00:33:41.047Z,6.47
2019-05-18T00:36:12.083Z,9.68
2019-05-18T00:38:42.946Z,6.92
2019-05-18T00:41:12.251Z,6.35
2019-05-18T00:43:41.467Z,6.12
2019-05-18T00:46:20.643Z,7.37
2019-05-18T00:48:52.998Z,7.58
2019-05-18T00:51:23.479Z,7.25
2019-05-18T00:53:52.974Z,6.87
2019-05-18T00:56:44.440Z,6.05
2019-05-18T00:59:16.100Z,8.05
2019-05-18T01:01:52.309Z,7.22
2019-05-18T01:04:25.026Z,6.97
2019-05-18T01:07:04.680Z,7.67
2019-05-18T01:09:35.922Z,6.30
2019-05-18T01:12:05.471Z,9.40
2019-05-18T01:14:34.888Z,6.08
2019-05-18T01:17:03.998Z,6.22
2019-05-18T01:19:40.267Z,6.83
2019-05-18T01:22:10.161Z,8.58
2019-05-18T01:24:41.574Z,6.97
2019-05-18T01:27:11.998Z,7.80
2019-05-18T01:29:41.459Z,6.15
2019-05-18T01:32:25.342Z,6.78
2019-05-18T01:34:54.671Z,7.40
2019-05-18T01:37:23.588Z,7.03
2019-05-18T01:39:52.630Z,6.37
2019-05-18T01:42:30.841Z,6.05
2019-05-18T01:45:14.203Z,6.53
2019-05-18T01:47:31.083Z,7.78
2019-05-18T01:50:04.183Z,6.28
2019-05-18T01:52:48.437Z,6.92
2019-05-18T01:55:18.096Z,6.85
2019-05-18T01:57:53.762Z,6.78
2019-05-18T02:00:23.106Z,8.08
2019-05-18T02:02:55.344Z,7.05
2019-05-18T02:05:24.571Z,5.72
2019-05-18T02:07:53.802Z,6.85
2019-05-18T02:10:23.714Z,5.97
2019-05-18T02:12:55.950Z,5.92
2019-05-18T02:15:25.798Z,5.75
2019-05-18T02:17:55.101Z,6.20
2019-05-18T02:20:24.137Z,6.50
2019-05-18T02:22:58.299Z,5.80
2019-05-18T02:25:27.403Z,8.25
2019-05-18T02:28:02.677Z,6.10
2019-05-18T02:30:34.258Z,6.95
2019-05-18T02:35:38.357Z,5.83
2019-05-18T02:38:21.720Z,5.95
2019-05-18T02:40:56.450Z,7.20
2019-05-18T02:43:25.703Z,6.08
2019-05-18T02:45:55.047Z,6.45
2019-05-18T02:48:25.695Z,5.60
2019-05-18T02:50:56.815Z,5.73
2019-05-18T02:53:26.013Z,7.00
2019-05-18T02:55:55.086Z,5.65
2019-05-18T02:58:26.297Z,5.90
2019-05-18T03:00:55.341Z,5.67
2019-05-18T03:03:27.397Z,6.47
2019-05-18T03:05:56.694Z,5.30
2019-05-18T03:08:25.787Z,5.72
2019-05-18T03:11:18.696Z,6.05
2019-05-18T03:13:54.267Z,5.90
2019-05-18T03:16:28.014Z,5.92
2019-05-18T03:19:08.264Z,5.70
2019-05-18T03:21:42.758Z,5.95
2019-05-18T03:24:26.000Z,5.05
2019-05-18T03:27:02.245Z,5.67
2019-05-18T03:29:31.849Z,5.55
2019-05-18T03:32:01.106Z,5.40
2019-05-18T03:34:30.392Z,5.62
2019-05-18T03:37:02.494Z,5.30
2019-05-18T03:39:31.758Z,5.55
2019-05-18T03:42:02.269Z,5.55
2019-05-18T03:44:31.775Z,5.90
2019-05-18T03:47:01.183Z,5.37
2019-05-18T03:49:30.548Z,6.25
2019-05-18T03:55:01.393Z,5.70
2019-05-18T03:57:52.268Z,5.42
2019-05-18T04:00:21.428Z,5.72
2019-05-18T04:02:50.637Z,6.15
2019-05-18T04:05:19.832Z,6.30
2019-05-18T04:07:49.040Z,5.75
2019-05-18T04:10:24.248Z,5.28
2019-05-18T04:13:14.662Z,5.90
2019-05-18T04:15:49.644Z,5.60
2019-05-18T04:18:31.244Z,5.78
2019-05-18T04:21:04.967Z,5.60
2019-05-18T04:23:34.057Z,6.05
2019-05-18T04:26:05.286Z,6.20
2019-05-18T04:29:13.037Z,6.15
2019-05-18T04:31:45.438Z,6.47
2019-05-18T04:34:14.463Z,8.80
2019-05-18T04:36:55.658Z,6.08
2019-05-18T04:39:26.669Z,5.72
2019-05-18T04:41:56.039Z,9.50
2019-05-18T04:44:25.408Z,8.10
2019-05-18T04:46:54.430Z,6.00
2019-05-18T04:49:25.146Z,6.30
2019-05-18T04:52:03.705Z,7.75
2019-05-18T04:54:33.898Z,5.80
2019-05-18T04:57:06.853Z,5.67
2019-05-18T04:59:38.111Z,6.10
2019-05-18T05:02:07.206Z,5.53
2019-05-18T05:04:42.261Z,5.90
2019-05-18T05:07:12.194Z,5.78
2019-05-18T05:09:42.390Z,5.97
2019-05-18T05:12:13.836Z,7.37
2019-05-18T05:14:45.899Z,5.87
2019-05-18T05:17:29.184Z,6.05
2019-05-18T05:19:58.528Z,5.62
2019-05-18T05:22:28.561Z,5.97
2019-05-18T05:25:01.053Z,5.42
2019-05-18T05:27:46.851Z,5.97
2019-05-18T05:30:32.388Z,6.87
2019-05-18T05:33:02.038Z,5.72
2019-05-18T05:35:52.701Z,9.65
2019-05-18T05:38:34.378Z,6.00
2019-05-18T05:41:19.391Z,4.20
2019-05-18T05:44:17.290Z,4.87
2019-05-18T05:47:04.191Z,5.70
2019-05-18T05:50:02.592Z,5.08
2019-05-18T05:52:48.398Z,5.72
2019-05-18T05:55:23.547Z,5.33
2019-05-18T05:57:53.615Z,5.67
2019-05-18T06:00:22.569Z,6.10
2019-05-18T06:02:53.247Z,4.80
2019-05-18T06:05:22.549Z,6.77
2019-05-18T06:07:51.524Z,5.30
2019-05-18T06:10:21.176Z,7.83
2019-05-18T06:12:50.369Z,10.45
2019-05-18T06:15:19.280Z,9.73
2019-05-18T06:17:52.751Z,11.88
2019-05-18T06:20:22.973Z,5.95
2019-05-18T06:22:52.257Z,7.85
2019-05-18T06:25:25.821Z,8.63
2019-05-18T06:27:55.391Z,9.85
2019-05-18T06:30:25.814Z,5.42
2019-05-18T06:32:58.268Z,6.67
2019-05-18T06:35:39.047Z,5.03
2019-05-18T06:38:10.850Z,6.10
2019-05-18T06:40:42.045Z,8.13
2019-05-18T06:43:11.554Z,8.60
2019-05-18T06:45:43.150Z,13.55
2019-05-18T06:51:06.215Z,10.35
2019-05-18T06:53:28.901Z,10.60
2019-05-18T06:56:04.084Z,11.63
2019-05-18T06:58:33.644Z,11.33
2019-05-18T07:01:05.763Z,11.88
2019-05-18T07:03:35.067Z,10.58
2019-05-18T07:06:04.542Z,10.70
2019-05-18T07:08:44.791Z,12.58
2019-05-18T07:11:14.212Z,11.22
2019-05-18T07:16:53.327Z,12.50
2019-05-18T07:19:30.222Z,11.78
2019-05-18T07:22:02.286Z,11.35
2019-05-18T07:24:34.480Z,9.98
2019-05-18T07:27:05.686Z,10.95
2019-05-18T07:29:38.359Z,10.85
2019-05-18T07:32:10.459Z,12.85
2019-05-18T07:34:39.800Z,12.07
2019-05-18T07:37:18.567Z,12.37
2019-05-18T07:39:53.978Z,12.60
2019-05-18T07:42:31.397Z,14.38
2019-05-18T07:45:03.837Z,15.85
2019-05-18T07:47:39.427Z,16.87
2019-05-18T07:50:27.763Z,14.87
2019-05-18T07:53:00.518Z,14.83
2019-05-18T07:55:29.723Z,15.60
2019-05-18T07:57:58.877Z,14.65
2019-05-18T08:00:32.210Z,14.60
2019-05-18T08:03:07.213Z,15.70
2019-05-18T08:05:36.588Z,16.40
2019-05-18T08:08:19.179Z,15.50
2019-05-18T08:10:54.558Z,15.88
2019-05-18T08:13:23.868Z,15.25
2019-05-18T08:15:54.509Z,15.60
2019-05-18T08:18:25.907Z,15.87
2019-05-18T08:20:54.791Z,15.20
2019-05-18T08:23:28.532Z,14.15
2019-05-18T08:25:57.860Z,13.88
2019-05-18T08:28:27.309Z,14.83
2019-05-18T08:30:56.741Z,15.13
2019-05-18T08:33:25.897Z,14.00
2019-05-18T08:35:57.770Z,13.25
2019-05-18T08:38:29.873Z,13.28
2019-05-18T08:41:08.046Z,12.23
2019-05-18T08:43:37.299Z,13.00
2019-05-18T08:46:07.358Z,12.03
2019-05-18T08:48:42.355Z,12.55
2019-05-18T08:51:11.433Z,14.28
2019-05-18T08:53:41.000Z,18.67
2019-05-18T08:56:10.105Z,16.75
2019-05-18T08:58:40.602Z,20.97
2019-05-18T09:01:09.709Z,14.93
2019-05-18T09:03:39.009Z,19.57
2019-05-18T09:06:08.295Z,16.80
2019-05-18T09:08:37.530Z,14.87
2019-05-18T09:11:06.636Z,14.28
2019-05-18T09:13:35.831Z,13.10
2019-05-18T09:16:04.883Z,14.13
2019-05-18T09:18:33.974Z,13.62
2019-05-18T09:21:03.113Z,11.95
2019-05-18T09:23:32.321Z,10.98
2019-05-18T09:26:01.712Z,11.93
2019-05-18T09:28:34.105Z,9.38
2019-05-18T09:31:03.379Z,10.63
2019-05-18T09:33:35.101Z,10.05
2019-05-18T09:36:04.564Z,11.18
2019-05-18T09:38:38.144Z,11.95
2019-05-18T09:41:16.215Z,11.70
2019-05-18T09:43:48.308Z,14.70
2019-05-18T09:46:34.798Z,13.43
2019-05-18T09:52:42.120Z,13.35
2019-05-18T09:54:57.346Z,12.40
2019-05-18T09:57:44.793Z,11.15
2019-05-18T10:00:17.354Z,10.72
2019-05-18T10:02:48.358Z,10.53
2019-05-18T10:05:18.889Z,9.78
2019-05-18T10:07:59.495Z,9.48
2019-05-18T10:10:50.087Z,11.33
2019-05-18T10:13:19.464Z,8.78
2019-05-18T10:16:05.532Z,8.60
2019-05-18T10:18:34.991Z,8.55
2019-05-18T10:21:07.345Z,8.08
2019-05-18T10:23:40.448Z,7.22
2019-05-18T10:26:11.363Z,8.45
2019-05-18T10:28:43.314Z,6.80
2019-05-18T10:31:12.881Z,8.18
2019-05-18T10:33:41.900Z,8.68
2019-05-18T10:36:11.895Z,8.68
2019-05-18T10:38:41.250Z,9.83
2019-05-18T10:41:10.632Z,9.83
2019-05-18T10:43:39.834Z,9.05
2019-05-18T10:46:08.801Z,8.65
2019-05-18T10:48:37.852Z,8.40
2019-05-18T10:51:06.898Z,10.43
2019-05-18T10:53:39.165Z,52.48
2019-05-18T10:56:08.053Z,66.30
2019-05-18T10:58:38.393Z,40.60
2019-05-18T11:01:07.269Z,36.13
2019-05-18T11:03:36.274Z,28.32
2019-05-18T11:06:05.281Z,25.20
2019-05-18T11:08:34.146Z,25.97
2019-05-18T11:11:03.144Z,20.10
2019-05-18T11:13:32.178Z,18.35
2019-05-18T11:16:01.220Z,20.17
2019-05-18T11:18:30.475Z,18.90
2019-05-18T11:20:59.565Z,17.12
2019-05-18T11:23:42.522Z,18.35
2019-05-18T11:25:59.143Z,17.20
2019-05-18T11:28:34.582Z,21.12
2019-05-18T11:31:05.110Z,20.48
2019-05-18T11:33:37.464Z,16.32
2019-05-18T11:36:15.892Z,17.85
2019-05-18T11:38:47.941Z,21.07
2019-05-18T11:41:19.224Z,16.52
2019-05-18T11:44:00.596Z,19.42
2019-05-18T11:46:33.106Z,15.75
2019-05-18T11:49:04.960Z,18.95
2019-05-18T11:51:35.892Z,14.93
2019-05-18T11:54:07.200Z,15.40
2019-05-18T11:56:49.391Z,14.07
2019-05-18T11:59:24.934Z,14.25
2019-05-18T12:01:57.482Z,14.98
2019-05-18T12:04:56.732Z,12.90
2019-05-18T12:07:27.501Z,13.13
2019-05-18T12:10:01.107Z,13.37
2019-05-18T12:12:30.589Z,14.33
2019-05-18T12:15:00.428Z,14.33
2019-05-18T12:17:50.707Z,14.38
2019-05-18T12:20:31.727Z,16.00
2019-05-18T12:23:02.396Z,17.42
2019-05-18T12:25:32.993Z,15.97
2019-05-18T12:28:02.392Z,12.78
2019-05-18T12:30:45.119Z,14.65
2019-05-18T12:33:14.432Z,17.10
2019-05-18T12:35:45.811Z,15.65
2019-05-18T12:38:16.661Z,16.97
2019-05-18T12:40:50.390Z,18.87
2019-05-18T12:43:42.256Z,18.10
2019-05-18T12:48:53.333Z,19.05
2019-05-18T12:52:17.021Z,14.30
2019-05-18T12:55:00.170Z,16.35
2019-05-18T12:57:29.556Z,22.22
2019-05-18T13:00:07.447Z,19.62
2019-05-18T13:02:44.340Z,20.72
2019-05-18T13:05:19.715Z,19.32
2019-05-18T13:07:49.282Z,20.70
2019-05-18T13:10:18.519Z,23.12
2019-05-18T13:12:52.815Z,21.33
2019-05-18T13:15:21.893Z,21.30
2019-05-18T13:17:54.007Z,20.92
2019-05-18T13:20:23.408Z,21.60
2019-05-18T13:22:54.660Z,19.52
2019-05-18T13:25:26.414Z,22.80
2019-05-18T13:27:55.602Z,25.27
2019-05-18T13:30:25.827Z,28.23
2019-05-18T13:32:54.983Z,26.50
2019-05-18T13:35:24.461Z,27.22
2019-05-18T13:37:53.605Z,26.68
2019-05-18T13:40:24.766Z,28.70
2019-05-18T13:43:23.246Z,22.70
2019-05-18T13:46:16.795Z,23.52
2019-05-18T13:48:46.299Z,23.85
2019-05-18T13:51:41.740Z,21.50
2019-05-18T13:54:33.306Z,23.40
2019-05-18T13:57:08.958Z,20.02
2019-05-18T13:59:43.241Z,18.85
2019-05-18T14:02:24.834Z,21.55
2019-05-18T14:07:22.918Z,23.62
2019-05-18T14:09:52.426Z,22.22
2019-05-18T14:12:29.350Z,23.22
2019-05-18T14:15:06.625Z,25.10
2019-05-18T14:17:41.271Z,23.55
2019-05-18T14:20:19.476Z,25.02
2019-05-18T14:22:48.775Z,25.45
2019-05-18T14:25:19.782Z,24.45
2019-05-18T14:27:49.407Z,23.67
2019-05-18T14:30:19.173Z,25.55
2019-05-18T14:32:48.284Z,27.80
2019-05-18T14:35:17.482Z,27.15
2019-05-18T14:37:46.632Z,25.37
2019-05-18T14:40:15.824Z,25.37
2019-05-18T14:42:46.004Z,25.52
2019-05-18T14:45:16.978Z,29.20
2019-05-18T14:47:46.118Z,28.40
2019-05-18T14:50:15.318Z,26.25
2019-05-18T14:52:44.516Z,25.43
2019-05-18T14:55:13.669Z,27.65
2019-05-18T14:57:43.014Z,26.50
2019-05-18T15:00:12.132Z,27.40
2019-05-18T15:02:41.670Z,29.05
2019-05-18T15:05:10.762Z,26.68
2019-05-18T15:07:42.790Z,27.05
2019-05-18T15:10:13.565Z,33.55
2019-05-18T15:12:43.786Z,26.52
2019-05-18T15:18:14.532Z,26.87
2019-05-18T15:20:44.102Z,28.57
2019-05-18T15:23:16.594Z,27.27
2019-05-18T15:25:50.604Z,25.67
2019-05-18T15:28:16.110Z,21.95
2019-05-18T15:30:47.622Z,25.48
2019-05-18T15:33:16.787Z,23.80
2019-05-18T15:35:46.064Z,17.95
2019-05-18T15:38:15.286Z,20.02
2019-05-18T15:41:04.137Z,14.58
2019-05-18T15:43:33.641Z,19.30
2019-05-18T15:46:02.842Z,22.02
2019-05-18T15:48:32.928Z,24.85
2019-05-18T15:51:02.448Z,20.25
2019-05-18T15:53:31.683Z,19.15
2019-05-18T15:56:05.971Z,17.85
2019-05-18T15:58:34.726Z,14.18
2019-05-18T16:01:03.990Z,17.45
2019-05-18T16:03:33.212Z,22.17
2019-05-18T16:06:03.623Z,17.15
2019-05-18T16:08:32.924Z,18.32
2019-05-18T16:11:02.049Z,16.45
2019-05-18T16:13:31.349Z,19.40
2019-05-18T16:16:01.261Z,18.30
2019-05-18T16:18:30.585Z,17.12
2019-05-18T16:20:59.832Z,24.07
2019-05-18T16:23:28.991Z,18.12
2019-05-18T16:25:58.497Z,17.23
2019-05-18T16:28:30.066Z,15.95
2019-05-18T16:31:00.063Z,14.68
2019-05-18T16:33:30.386Z,14.75
2019-05-18T16:35:59.399Z,12.37
2019-05-18T16:38:28.654Z,15.15
2019-05-18T16:40:57.970Z,14.15
2019-05-18T16:43:27.564Z,14.00
2019-05-18T16:45:57.100Z,13.70
2019-05-18T16:48:29.346Z,14.05
2019-05-18T16:50:58.846Z,12.40
2019-05-18T16:53:36.350Z,11.15
2019-05-18T16:56:05.412Z,16.37
2019-05-18T16:58:41.465Z,13.65
2019-05-18T17:01:10.735Z,14.38
2019-05-18T17:03:39.979Z,14.33
2019-05-18T17:06:09.556Z,10.93
2019-05-18T17:08:39.001Z,11.55
2019-05-18T17:11:08.404Z,14.43
2019-05-18T17:13:37.701Z,12.70
2019-05-18T17:16:17.821Z,12.78
2019-05-18T17:18:44.637Z,12.25
2019-05-18T17:21:14.109Z,10.78
2019-05-18T17:23:55.903Z,10.82
2019-05-18T17:28:53.287Z,11.65
2019-05-18T17:31:22.928Z,18.20
2019-05-18T17:33:52.287Z,19.20
2019-05-18T17:36:21.689Z,19.95
2019-05-18T17:38:52.429Z,18.32
2019-05-18T17:41:21.928Z,21.63
2019-05-18T17:43:51.456Z,21.00
2019-05-18T17:46:22.382Z,18.60
2019-05-18T17:48:54.665Z,19.32
2019-05-18T17:51:23.965Z,17.73
2019-05-18T17:53:53.290Z,17.70
2019-05-18T17:56:22.785Z,14.80
2019-05-18T17:59:01.531Z,13.10
2019-05-18T18:01:35.640Z,14.15
2019-05-18T18:04:04.691Z,19.73
2019-05-18T18:06:34.197Z,15.53
2019-05-18T18:09:03.496Z,18.75
2019-05-18T18:11:32.510Z,16.93
2019-05-18T18:14:01.485Z,15.23
2019-05-18T18:16:39.796Z,15.63
2019-05-18T18:19:10.081Z,21.60
2019-05-18T18:21:39.640Z,14.95
2019-05-18T18:24:23.338Z,16.37
2019-05-18T18:26:53.544Z,15.70
2019-05-18T18:29:26.431Z,16.40
2019-05-18T18:31:57.659Z,17.07
2019-05-18T18:34:26.388Z,17.53
2019-05-18T18:36:55.824Z,19.92
2019-05-18T18:39:28.045Z,18.30
2019-05-18T18:41:59.955Z,14.35
2019-05-18T18:44:29.124Z,18.73
2019-05-18T18:47:08.509Z,16.77
2019-05-18T18:49:40.762Z,18.40
2019-05-18T18:52:10.985Z,15.63
2019-05-18T18:54:41.998Z,15.28
2019-05-18T18:57:11.815Z,16.30
2019-05-18T18:59:44.012Z,16.70
2019-05-18T19:02:15.991Z,13.95
2019-05-18T19:04:54.514Z,11.65
2019-05-18T19:07:26.804Z,12.80
2019-05-18T19:09:58.307Z,15.00
2019-05-18T19:12:27.324Z,12.13
2019-05-18T19:14:56.188Z,12.75
2019-05-18T19:17:25.299Z,10.05
2019-05-18T19:19:58.933Z,11.88
2019-05-18T19:22:27.985Z,13.50
2019-05-18T19:24:58.313Z,15.30
2019-05-18T19:27:31.192Z,14.68
2019-05-18T19:30:00.137Z,9.98
2019-05-18T19:32:29.462Z,19.15
2019-05-18T19:34:58.506Z,9.63
2019-05-18T19:37:33.287Z,13.85
2019-05-18T19:40:02.587Z,11.97
2019-05-18T19:42:31.630Z,10.75
2019-05-18T19:45:02.936Z,9.40
2019-05-18T19:47:38.241Z,15.53
2019-05-18T19:50:07.510Z,11.22
2019-05-18T19:52:36.613Z,11.90
2019-05-18T19:55:12.288Z,11.53
2019-05-18T19:57:41.539Z,8.30
2019-05-18T20:00:10.712Z,11.88
2019-05-18T20:02:44.572Z,16.05
2019-05-18T20:05:14.156Z,9.53
2019-05-18T20:07:44.626Z,11.08
2019-05-18T20:10:13.721Z,15.80
2019-05-18T20:12:43.369Z,11.83
2019-05-18T20:15:14.752Z,13.98
2019-05-18T20:17:44.419Z,11.35
2019-05-18T20:20:13.762Z,14.68
2019-05-18T20:22:42.812Z,16.60
2019-05-18T20:25:12.218Z,11.20
2019-05-18T20:27:41.747Z,15.68
2019-05-18T20:30:10.767Z,13.50
2019-05-18T20:32:41.263Z,17.98
2019-05-18T20:35:12.498Z,14.00
2019-05-18T20:37:42.291Z,9.83
2019-05-18T20:40:12.440Z,10.93
2019-05-18T20:42:41.776Z,12.47
2019-05-18T20:45:11.581Z,12.28
2019-05-18T20:47:47.120Z,17.32
2019-05-18T20:50:18.555Z,10.45
2019-05-18T20:52:49.421Z,14.13
2019-05-18T20:55:18.528Z,9.73
2019-05-18T20:57:50.711Z,10.90
2019-05-18T21:00:21.428Z,11.28
2019-05-18T21:02:50.526Z,8.63
2019-05-18T21:05:27.605Z,12.45
2019-05-18T21:08:00.166Z,10.20
2019-05-18T21:10:29.139Z,10.60
2019-05-18T21:12:59.459Z,12.75
2019-05-18T21:15:28.463Z,12.93
2019-05-18T21:18:00.679Z,8.60
2019-05-18T21:20:29.773Z,7.92
2019-05-18T21:22:58.858Z,9.78
2019-05-18T21:25:35.654Z,9.43
2019-05-18T21:28:04.939Z,9.48
2019-05-18T21:30:34.144Z,11.08
2019-05-18T21:33:03.265Z,10.75
2019-05-18T21:35:51.546Z,10.35
2019-05-18T21:38:21.380Z,10.82
2019-05-18T21:40:50.760Z,12.00
2019-05-18T21:43:33.363Z,9.55
2019-05-18T21:46:05.729Z,9.18
2019-05-18T21:48:38.977Z,11.57
2019-05-18T21:51:08.280Z,9.23
2019-05-18T21:53:37.514Z,7.65
2019-05-18T21:56:09.850Z,8.00
2019-05-18T21:58:39.355Z,10.72
2019-05-18T22:01:08.618Z,10.25
2019-05-18T22:03:37.714Z,11.65
2019-05-18T22:06:07.141Z,8.13
2019-05-18T22:08:36.136Z,9.63
2019-05-18T22:11:17.851Z,9.13
2019-05-18T22:13:46.836Z,13.38
2019-05-18T22:16:15.997Z,10.00
2019-05-18T22:18:45.403Z,11.68
2019-05-18T22:21:14.967Z,9.25
2019-05-18T22:23:44.546Z,9.55
2019-05-18T22:26:16.160Z,10.23
2019-05-18T22:31:13.864Z,11.28
2019-05-18T22:33:51.025Z,7.50
2019-05-18T22:36:26.509Z,11.22
2019-05-18T22:38:57.178Z,7.47
2019-05-18T22:41:29.620Z,7.17
2019-05-18T22:44:42.747Z,10.40
2019-05-18T22:47:15.992Z,7.62
2019-05-18T22:49:58.856Z,8.63
2019-05-18T22:52:39.114Z,8.78
2019-05-18T22:55:12.771Z,7.30
2019-05-18T22:57:45.662Z,6.53
2019-05-18T23:00:14.598Z,8.53
2019-05-18T23:02:57.735Z,8.50
2019-05-18T23:05:28.825Z,8.93
2019-05-18T23:08:04.203Z,8.33
2019-05-18T23:10:42.918Z,9.05
2019-05-18T23:13:12.041Z,7.58
2019-05-18T23:15:44.185Z,7.17
2019-05-18T23:18:26.188Z,7.53
2019-05-18T23:20:54.871Z,8.58
2019-05-18T23:23:27.348Z,6.83
2019-05-18T23:25:56.748Z,7.53
2019-05-18T23:28:32.056Z,9.13
2019-05-18T23:31:01.541Z,7.97
2019-05-18T23:33:31.244Z,6.90
2019-05-18T23:36:06.353Z,7.30
2019-05-18T23:38:35.987Z,7.28
2019-05-18T23:41:09.039Z,10.95
2019-05-18T23:43:46.204Z,7.10
2019-05-18T23:46:17.323Z,7.47
2019-05-18T23:48:48.951Z,7.40
2019-05-18T23:53:46.822Z,6.90
2019-05-18T23:56:28.412Z,7.28
2019-05-18T23:59:02.095Z,7.05
